Time;durP1;ratioP1;P1;durP2;ratioP2;P2;SDS_P1;SDS_P2;PMS_P1;PMS_P2;Temp;Humidity;BMP_temperature;BMP_pressure;BME280_temperature;BME280_humidity;BME280_pressure;Samples;Min_cycle;Max_cycle;Signal;HPM_P1;HPM_P2
2022/06/07 00:00:44;;;;;;;7.95;6.38;;;22.80;99.90;;;;;;5042419;28;20021;-53
2022/06/07 00:03:10;;;;;;;8.88;7.20;;;22.70;99.90;;;;;;4999811;28;20048;-52
2022/06/07 00:05:35;;;;;;;7.35;6.57;;;22.70;99.90;;;;;;5048994;28;20029;-51
2022/06/07 00:08:02;;;;;;;8.13;6.97;;;22.70;99.90;;;;;;5046930;28;20546;-52
2022/06/07 00:10:28;;;;;;;8.18;7.18;;;22.70;99.90;;;;;;5044361;28;20087;-52
2022/06/07 00:12:54;;;;;;;7.53;6.75;;;22.70;99.90;;;;;;5012505;28;20045;-51
2022/06/07 00:15:21;;;;;;;14.65;7.18;;;22.70;99.90;;;;;;5011526;28;20491;-52
2022/06/07 00:17:47;;;;;;;8.48;6.90;;;22.70;99.90;;;;;;4964801;28;20400;-51
2022/06/07 00:20:13;;;;;;;12.38;7.45;;;22.70;99.90;;;;;;5043847;28;20032;-50
2022/06/07 00:22:39;;;;;;;9.38;7.15;;;22.70;99.90;;;;;;5047462;28;20037;-49
2022/06/07 00:25:08;;;;;;;7.50;6.78;;;22.60;99.90;;;;;;5012073;28;20051;-52
2022/06/07 00:27:34;;;;;;;9.25;6.97;;;22.60;99.90;;;;;;5002977;28;20139;-51
2022/06/07 00:30:00;;;;;;;6.65;5.97;;;22.60;99.90;;;;;;5003453;28;20490;-54
2022/06/07 00:32:26;;;;;;;8.35;6.32;;;;;;;;;;4987651;28;20084;-51
2022/06/07 00:34:52;;;;;;;9.40;6.70;;;22.60;99.90;;;;;;5003951;28;20129;-51
2022/06/07 00:37:18;;;;;;;10.60;6.85;;;22.70;99.90;;;;;;5005615;28;20456;-50
2022/06/07 00:39:44;;;;;;;8.23;6.30;;;;;;;;;;4955569;28;20033;-50
2022/06/07 00:42:11;;;;;;;7.32;6.45;;;;;;;;;;5003043;28;20478;-50
2022/06/07 00:44:44;;;;;;;7.68;5.93;;;22.50;99.90;;;;;;5006583;28;20048;-51
2022/06/07 00:47:13;;;;;;;8.32;7.32;;;22.50;99.90;;;;;;5000641;28;20053;-50
2022/06/07 00:49:51;;;;;;;9.00;7.90;;;22.50;99.90;;;;;;5005111;28;20038;-51
2022/06/07 00:52:19;;;;;;;9.25;8.20;;;22.30;99.90;;;;;;5004314;28;20038;-51
2022/06/07 00:54:44;;;;;;;9.05;8.07;;;22.30;99.90;;;;;;5005165;28;20034;-51
2022/06/07 00:57:10;;;;;;;9.18;7.68;;;;;;;;;;4994035;28;20037;-50
2022/06/07 00:59:37;;;;;;;8.98;8.18;;;;;;;;;;5043044;28;20063;-51
2022/06/07 01:02:03;;;;;;;8.73;7.53;;;;;;;;;;5010296;28;20048;-51
2022/06/07 01:04:29;;;;;;;9.75;8.25;;;22.50;99.90;;;;;;5001908;28;20162;-52
2022/06/07 01:12:26;;;;;;;9.90;8.90;;;22.20;99.90;;;;;;5044886;28;20083;-50
2022/06/07 01:14:52;;;;;;;9.48;8.52;;;22.20;99.90;;;;;;5046966;28;20025;-50
2022/06/07 01:17:19;;;;;;;10.40;8.23;;;22.30;99.90;;;;;;5049585;28;20023;-50
2022/06/07 01:19:46;;;;;;;9.65;8.10;;;22.30;99.90;;;;;;5049495;28;20086;-50
2022/06/07 01:22:12;;;;;;;9.07;7.28;;;22.40;99.90;;;;;;5042235;28;20457;-51
2022/06/07 01:24:39;;;;;;;9.35;7.55;;;22.40;99.90;;;;;;5047403;28;20029;-51
2022/06/07 01:27:06;;;;;;;9.85;7.70;;;22.40;99.90;;;;;;5046043;28;20033;-51
2022/06/07 01:29:32;;;;;;;10.88;8.10;;;22.40;99.90;;;;;;5047767;28;20032;-50
2022/06/07 01:31:58;;;;;;;8.02;7.15;;;22.40;99.90;;;;;;5045322;28;20457;-51
2022/06/07 01:34:24;;;;;;;8.80;7.32;;;22.40;99.90;;;;;;5043432;28;20159;-51
2022/06/07 01:36:50;;;;;;;8.13;7.30;;;22.40;99.90;;;;;;5049210;28;20064;-51
2022/06/07 01:42:01;;;;;;;10.48;7.25;;;22.40;99.90;;;;;;5044619;28;20048;-52
2022/06/07 01:44:35;;;;;;;8.48;7.57;;;22.40;99.90;;;;;;5044343;28;20056;-50
2022/06/07 01:47:01;;;;;;;9.90;7.57;;;22.40;99.90;;;;;;5044434;28;20411;-52
2022/06/07 01:49:27;;;;;;;9.80;7.30;;;22.40;99.90;;;;;;5022790;28;20036;-51
2022/06/07 01:51:54;;;;;;;11.18;7.63;;;22.40;99.90;;;;;;5042481;28;20029;-51
2022/06/07 01:54:20;;;;;;;11.77;7.88;;;22.40;99.90;;;;;;5051909;28;20064;-51
2022/06/07 01:56:47;;;;;;;8.55;7.50;;;22.40;99.90;;;;;;5050754;28;20037;-51
2022/06/07 01:59:13;;;;;;;8.18;7.38;;;22.40;99.90;;;;;;5045600;28;20076;-51
2022/06/07 02:01:39;;;;;;;9.70;8.20;;;22.40;99.90;;;;;;5043622;28;20060;-50
2022/06/07 02:04:06;;;;;;;12.60;7.97;;;22.40;99.90;;;;;;5051285;28;20412;-51
2022/06/07 02:06:32;;;;;;;8.50;7.60;;;22.40;99.90;;;;;;5000954;28;20120;-50
2022/06/07 02:08:58;;;;;;;9.05;7.35;;;22.40;99.90;;;;;;5053251;28;20104;-50
2022/06/07 02:11:26;;;;;;;9.48;7.18;;;22.40;99.90;;;;;;5013807;28;20148;-51
2022/06/07 02:13:53;;;;;;;8.88;7.80;;;22.30;99.90;;;;;;5047317;28;20116;-51
2022/06/07 02:29:36;;;;;;;13.23;9.88;;;22.50;99.90;;;;;;5063289;28;20412;-51
2022/06/07 02:32:08;;;;;;;11.25;8.93;;;22.50;99.90;;;;;;5033649;28;20052;-51
2022/06/07 02:34:35;;;;;;;10.73;9.23;;;22.40;99.90;;;;;;5049205;28;20033;-51
2022/06/07 02:37:03;;;;;;;13.65;10.23;;;22.40;99.90;;;;;;5042294;28;20079;-51
2022/06/07 02:39:31;;;;;;;10.55;9.00;;;22.30;99.90;;;;;;4994209;28;20042;-51
2022/06/07 02:42:00;;;;;;;12.63;8.60;;;22.20;99.90;;;;;;5026813;28;20038;-51
2022/06/07 02:44:25;;;;;;;11.57;9.38;;;22.20;99.90;;;;;;5029775;28;20505;-50
2022/06/07 02:46:51;;;;;;;15.07;9.35;;;22.20;99.90;;;;;;5032501;28;20076;-51
2022/06/07 02:49:17;;;;;;;11.15;8.68;;;22.20;99.90;;;;;;5028195;28;20041;-51
2022/06/07 02:51:43;;;;;;;13.68;9.73;;;22.00;99.90;;;;;;5026480;28;20049;-51
2022/06/07 02:54:09;;;;;;;12.32;8.82;;;22.00;99.90;;;;;;5028571;28;20500;-50
2022/06/07 02:56:34;;;;;;;9.63;8.38;;;22.00;99.90;;;;;;5030102;28;20112;-52
2022/06/07 02:59:00;;;;;;;13.52;8.40;;;21.90;99.90;;;;;;4995275;28;20029;-51
2022/06/07 03:01:28;;;;;;;9.73;8.73;;;21.90;99.90;;;;;;5031188;28;20509;-51
2022/06/07 03:03:54;;;;;;;12.95;9.13;;;21.80;99.90;;;;;;5054651;28;20048;-51
2022/06/07 03:06:20;;;;;;;9.25;8.35;;;21.80;99.90;;;;;;5026944;28;20045;-51
2022/06/07 03:08:46;;;;;;;13.93;8.60;;;21.80;99.90;;;;;;5029168;28;20466;-51
2022/06/07 03:11:12;;;;;;;9.25;8.35;;;21.80;99.90;;;;;;5038223;28;20038;-51
2022/06/07 03:13:38;;;;;;;15.27;8.75;;;21.70;99.90;;;;;;5027056;28;20465;-51
2022/06/07 03:16:03;;;;;;;8.95;7.95;;;21.80;99.90;;;;;;5032238;28;20457;-51
2022/06/07 03:18:29;;;;;;;9.70;8.35;;;21.70;99.90;;;;;;5062259;28;20060;-52
2022/06/07 03:20:55;;;;;;;9.80;8.90;;;21.70;99.90;;;;;;5065471;28;20507;-51
2022/06/07 03:23:21;;;;;;;10.95;9.02;;;21.70;99.90;;;;;;5052518;28;20029;-52
2022/06/07 03:25:47;;;;;;;12.88;11.38;;;21.80;99.90;;;;;;5056930;28;20037;-51
2022/06/07 03:28:12;;;;;;;11.15;9.82;;;21.70;99.90;;;;;;5052606;28;20553;-51
2022/06/07 03:30:39;;;;;;;11.85;8.75;;;21.70;99.90;;;;;;5049356;28;20041;-50
2022/06/07 03:33:06;;;;;;;11.52;9.48;;;21.70;99.90;;;;;;5034874;28;20396;-51
2022/06/07 03:35:32;;;;;;;12.68;8.95;;;21.70;99.90;;;;;;5034569;28;20033;-51
2022/06/07 03:37:57;;;;;;;18.27;9.25;;;21.70;99.90;;;;;;5014704;28;20053;-50
2022/06/07 03:43:07;;;;;;;10.43;9.27;;;21.80;99.90;;;;;;5037112;28;20094;-52
2022/06/07 03:45:33;;;;;;;13.10;9.77;;;21.80;99.90;;;;;;4999627;28;20416;-51
2022/06/07 03:47:59;;;;;;;11.38;9.30;;;21.70;99.90;;;;;;5016210;28;20041;-52
2022/06/07 03:50:25;;;;;;;10.90;9.32;;;21.70;99.90;;;;;;5038860;28;20025;-51
2022/06/07 03:52:51;;;;;;;12.52;9.68;;;21.80;99.90;;;;;;5053136;28;20396;-51
2022/06/07 03:55:17;;;;;;;11.32;10.00;;;21.80;99.90;;;;;;5035263;28;20040;-51
2022/06/07 03:57:43;;;;;;;16.00;10.65;;;21.70;99.90;;;;;;5042989;28;20113;-51
2022/06/07 04:00:10;;;;;;;13.82;10.40;;;21.80;99.90;;;;;;5022733;28;20052;-51
2022/06/07 04:02:36;;;;;;;11.88;9.15;;;21.80;99.90;;;;;;5033482;28;20037;-51
2022/06/07 04:05:03;;;;;;;10.23;8.70;;;21.80;99.90;;;;;;5034261;28;20061;-51
2022/06/07 04:10:13;;;;;;;10.35;9.35;;;21.90;99.90;;;;;;5034070;28;20521;-50
2022/06/07 04:12:39;;;;;;;11.23;9.13;;;22.00;99.90;;;;;;5008103;28;20065;-50
2022/06/07 04:15:05;;;;;;;12.55;9.10;;;21.70;99.90;;;;;;5038133;28;20038;-51
2022/06/07 04:17:31;;;;;;;11.80;9.10;;;21.80;99.90;;;;;;5020584;28;20046;-51
2022/06/07 04:19:57;;;;;;;11.48;8.98;;;21.70;99.90;;;;;;5037232;28;20143;-52
2022/06/07 04:22:23;;;;;;;11.73;10.30;;;21.10;99.90;;;;;;5035822;28;20032;-51
2022/06/07 04:24:48;;;;;;;13.65;11.18;;;21.30;99.90;;;;;;5036317;28;20053;-51
2022/06/07 04:27:14;;;;;;;13.98;11.15;;;21.20;99.90;;;;;;5034574;28;20083;-51
2022/06/07 04:29:41;;;;;;;13.55;10.48;;;21.00;99.90;;;;;;5053350;28;20042;-51
2022/06/07 04:32:07;;;;;;;12.43;10.07;;;;;;;;;;5035966;28;20477;-51
2022/06/07 04:34:33;;;;;;;16.30;10.85;;;;;;;;;;5031672;28;20451;-50
2022/06/07 04:36:59;;;;;;;11.80;9.82;;;21.00;99.90;;;;;;5036996;28;20080;-52
2022/06/07 04:39:25;;;;;;;14.05;10.15;;;21.20;99.90;;;;;;5036387;28;20029;-51
2022/06/07 04:41:50;;;;;;;10.30;8.88;;;21.30;99.90;;;;;;5047377;28;20057;-51
2022/06/07 04:44:16;;;;;;;12.38;9.82;;;21.50;99.90;;;;;;5034839;28;20033;-50
2022/06/07 04:46:42;;;;;;;11.18;8.90;;;21.30;99.90;;;;;;5037747;28;20022;-51
2022/06/07 04:49:08;;;;;;;10.10;8.80;;;21.80;99.90;;;;;;5037611;28;20030;-51
2022/06/07 04:51:35;;;;;;;11.40;8.93;;;;;;;;;;5047748;28;20466;-51
2022/06/07 04:54:02;;;;;;;10.57;8.57;;;21.70;99.90;;;;;;5033440;28;20021;-51
2022/06/07 04:56:35;;;;;;;9.88;8.88;;;22.00;99.90;;;;;;5036650;28;20029;-51
2022/06/07 04:59:03;;;;;;;9.95;8.30;;;22.20;99.90;;;;;;5036813;28;20068;-51
2022/06/07 05:01:32;;;;;;;9.07;8.18;;;22.30;99.90;;;;;;5048178;28;20037;-52
2022/06/07 05:03:58;;;;;;;10.07;8.02;;;22.40;99.90;;;;;;5038574;28;20417;-51
2022/06/07 05:06:30;;;;;;;9.07;8.07;;;22.60;99.90;;;;;;5056507;28;20053;-51
2022/06/07 05:09:13;;;;;;;15.60;8.18;;;23.00;99.90;;;;;;5032777;28;20059;-51
2022/06/07 05:11:39;;;;;;;10.63;7.32;;;23.30;99.90;;;;;;5028556;28;20072;-51
2022/06/07 05:14:06;;;;;;;11.50;7.80;;;23.40;99.90;;;;;;5034038;28;20061;-51
2022/06/07 05:16:36;;;;;;;10.77;7.82;;;23.50;99.90;;;;;;5050871;28;20094;-51
2022/06/07 05:19:02;;;;;;;9.30;7.32;;;;;;;;;;5053542;28;20452;-51
2022/06/07 05:21:28;;;;;;;8.25;6.38;;;;;;;;;;5050905;28;20045;-51
2022/06/07 05:23:55;;;;;;;8.73;6.70;;;;;;;;;;5003102;28;20037;-51
2022/06/07 05:26:29;;;;;;;22.48;8.18;;;24.50;99.90;;;;;;5012230;28;20060;-50
2022/06/07 05:28:56;;;;;;;8.15;6.63;;;;;;;;;;4971806;28;20079;-50
2022/06/07 05:31:22;;;;;;;8.02;6.80;;;;;;;;;;5013741;28;20482;-51
2022/06/07 05:33:49;;;;;;;7.10;6.40;;;;;;;;;;4983477;28;20049;-51
2022/06/07 05:36:15;;;;;;;7.35;6.47;;;;;;;;;;5011154;28;20077;-52
2022/06/07 05:38:42;;;;;;;8.13;6.57;;;;;;;;;;5013856;28;20034;-51
2022/06/07 05:41:10;;;;;;;8.45;5.78;;;;;;;;;;4978378;28;20038;-51
2022/06/07 05:43:37;;;;;;;11.98;6.40;;;;;;;;;;5012846;28;20548;-50
2022/06/07 05:46:03;;;;;;;14.02;7.18;;;;;;;;;;5012396;28;20042;-51
2022/06/07 05:48:33;;;;;;;10.40;6.75;;;;;;;;;;4993412;28;20085;-51
2022/06/07 05:50:59;;;;;;;19.30;8.10;;;;;;;;;;4966430;28;20042;-51
2022/06/07 05:53:25;;;;;;;7.85;6.15;;;;;;;;;;4991637;28;20030;-51
2022/06/07 05:55:51;;;;;;;7.43;5.32;;;;;;;;;;4993437;28;20133;-50
2022/06/07 05:58:18;;;;;;;8.70;6.70;;;;;;;;;;5034802;28;20412;-50
2022/06/07 06:00:44;;;;;;;10.52;6.90;;;;;;;;;;5044899;28;20691;-51
2022/06/07 06:03:11;;;;;;;10.77;6.65;;;;;;;;;;5031681;28;20037;-51
2022/06/07 06:05:37;;;;;;;6.93;5.88;;;;;;;;;;5051420;28;20056;-52
2022/06/07 06:10:48;;;;;;;8.30;5.80;;;25.60;99.90;;;;;;5031877;28;20380;-51
2022/06/07 06:13:15;;;;;;;7.03;6.05;;;;;;;;;;5029957;28;20030;-50
2022/06/07 06:15:41;;;;;;;10.63;6.28;;;25.80;99.90;;;;;;5037079;28;20068;-51
2022/06/07 06:18:07;;;;;;;21.17;7.70;;;;;;;;;;5029432;28;20126;-51
2022/06/07 06:20:35;;;;;;;5.93;5.30;;;26.20;99.90;;;;;;4996593;28;20029;-51
2022/06/07 06:23:01;;;;;;;8.88;6.45;;;26.10;99.90;;;;;;5032070;28;20053;-51
2022/06/07 06:25:27;;;;;;;6.60;5.88;;;26.10;99.90;;;;;;5001650;28;20052;-52
2022/06/07 06:27:52;;;;;;;7.65;5.90;;;26.20;99.90;;;;;;5017115;28;20550;-51
2022/06/07 06:30:20;;;;;;;7.30;5.97;;;26.20;99.90;;;;;;5029451;28;20548;-51
2022/06/07 06:32:46;;;;;;;7.35;5.47;;;;;;;;;;5032060;28;20048;-52
2022/06/07 06:35:12;;;;;;;6.68;5.47;;;26.30;99.90;;;;;;5031576;28;20030;-52
2022/06/07 06:37:38;;;;;;;5.65;5.10;;;;;;;;;;5029336;28;20095;-51
2022/06/07 06:40:04;;;;;;;6.13;5.10;;;;;;;;;;5028894;28;20038;-52
2022/06/07 06:42:30;;;;;;;7.07;4.75;;;;;;;;;;5014790;28;20091;-51
2022/06/07 06:44:58;;;;;;;7.18;5.95;;;26.70;99.90;;;;;;5029437;28;20036;-51
2022/06/07 06:47:24;;;;;;;6.05;4.72;;;26.80;99.90;;;;;;5032825;28;20044;-52
2022/06/07 06:49:49;;;;;;;5.40;4.82;;;26.70;99.90;;;;;;5014189;28;20045;-51
2022/06/07 06:52:15;;;;;;;5.75;4.15;;;26.60;99.90;;;;;;4983853;28;20515;-52
2022/06/07 06:54:42;;;;;;;6.90;4.88;;;26.60;99.90;;;;;;5031996;28;20038;-51
2022/06/07 06:57:07;;;;;;;5.65;4.80;;;26.40;99.90;;;;;;5030460;28;20649;-52
2022/06/07 06:59:33;;;;;;;5.70;4.80;;;26.60;99.90;;;;;;5029221;28;20032;-51
2022/06/07 07:01:59;;;;;;;6.22;4.60;;;26.50;99.90;;;;;;5028777;28;20493;-50
2022/06/07 07:04:25;;;;;;;5.68;5.05;;;26.20;99.90;;;;;;5029900;28;20044;-51
2022/06/07 07:06:51;;;;;;;6.07;4.50;;;26.20;99.90;;;;;;5034498;28;20027;-50
2022/06/07 07:09:22;;;;;;;5.45;4.90;;;26.10;99.90;;;;;;5012019;28;20466;-51
2022/06/07 07:11:51;;;;;;;6.53;4.80;;;26.50;99.90;;;;;;5012047;28;20128;-50
2022/06/07 07:14:17;;;;;;;5.47;4.75;;;26.70;99.90;;;;;;4996374;28;20053;-51
2022/06/07 07:16:49;;;;;;;5.82;4.30;;;26.30;99.90;;;;;;5014834;28;20054;-51
2022/06/07 07:19:16;;;;;;;9.55;4.90;;;26.30;99.90;;;;;;5010399;28;20129;-51
2022/06/07 07:21:45;;;;;;;5.82;4.45;;;26.50;99.90;;;;;;5013141;28;20056;-52
2022/06/07 07:24:14;;;;;;;6.10;4.70;;;26.60;99.90;;;;;;5012608;28;20079;-51
2022/06/07 07:26:43;;;;;;;7.47;4.72;;;;;;;;;;5011831;28;20512;-51
2022/06/07 07:29:11;;;;;;;5.40;4.68;;;26.90;99.90;;;;;;5016855;28;20053;-51
2022/06/07 07:31:38;;;;;;;6.57;4.20;;;;;;;;;;5015759;28;20094;-51
2022/06/07 07:34:07;;;;;;;5.22;3.85;;;27.00;99.90;;;;;;5014201;28;20040;-51
2022/06/07 07:36:34;;;;;;;4.75;4.10;;;27.20;99.90;;;;;;5010440;28;20034;-51
2022/06/07 07:39:01;;;;;;;6.78;4.47;;;26.80;99.90;;;;;;5010481;28;20041;-53
2022/06/07 07:41:34;;;;;;;5.88;4.30;;;26.70;99.90;;;;;;5033255;28;20642;-51
2022/06/07 07:44:02;;;;;;;7.68;4.07;;;26.80;99.90;;;;;;5018137;28;20044;-51
2022/06/07 07:46:31;;;;;;;6.32;4.45;;;27.30;99.90;;;;;;5048629;28;20472;-51
2022/06/07 07:48:58;;;;;;;5.07;3.97;;;;;;;;;;5033190;28;20026;-51
2022/06/07 07:51:27;;;;;;;5.55;4.63;;;27.70;99.90;;;;;;5036939;28;20026;-51
2022/06/07 07:53:55;;;;;;;4.65;4.00;;;27.10;99.90;;;;;;5035483;28;20071;-51
2022/06/07 07:56:21;;;;;;;4.45;3.83;;;26.80;99.90;;;;;;5040744;28;20029;-51
2022/06/07 07:58:48;;;;;;;4.50;4.10;;;27.20;99.90;;;;;;5028776;28;20098;-51
2022/06/07 08:01:17;;;;;;;4.15;3.75;;;27.40;99.90;;;;;;5037692;28;20112;-52
2022/06/07 08:03:43;;;;;;;4.68;3.65;;;27.40;99.90;;;;;;5036746;28;20033;-51
2022/06/07 08:06:12;;;;;;;4.63;3.65;;;27.60;99.90;;;;;;5035404;28;20423;-51
2022/06/07 08:08:39;;;;;;;4.95;4.47;;;27.20;99.90;;;;;;5033866;28;20041;-51
2022/06/07 08:11:06;;;;;;;4.13;3.55;;;27.40;99.90;;;;;;5032850;28;20385;-50
2022/06/07 08:13:33;;;;;;;4.85;3.38;;;27.40;99.90;;;;;;4993351;28;20099;-51
2022/06/07 08:15:58;;;;;;;3.70;3.13;;;26.90;99.90;;;;;;5033890;28;20037;-51
2022/06/07 08:18:25;;;;;;;6.10;3.85;;;27.00;99.90;;;;;;4998267;28;20488;-53
2022/06/07 08:20:57;;;;;;;5.60;3.55;;;27.10;99.90;;;;;;4998976;28;20064;-51
2022/06/07 08:23:23;;;;;;;4.13;3.17;;;27.50;99.90;;;;;;4975979;28;20037;-51
2022/06/07 08:25:49;;;;;;;3.92;3.47;;;27.40;99.90;;;;;;5008808;28;20518;-53
2022/06/07 08:28:15;;;;;;;4.57;4.13;;;27.50;99.90;;;;;;5010143;28;20501;-51
2022/06/07 08:30:47;;;;;;;5.78;4.40;;;;;;;;;;4992133;28;20038;-51
2022/06/07 08:38:44;;;;;;;5.35;4.00;;;;;;;;;;5008586;28;20053;-51
2022/06/07 08:41:28;;;;;;;6.68;4.00;;;;;;;;;;5012289;28;20048;-49
2022/06/07 08:44:02;;;;;;;6.53;3.72;;;28.60;99.90;;;;;;5028470;28;20087;-51
2022/06/07 08:46:33;;;;;;;5.35;4.00;;;28.60;99.90;;;;;;5030821;28;20033;-51
2022/06/07 08:48:59;;;;;;;5.93;3.70;;;28.80;99.90;;;;;;5025509;28;20042;-51
2022/06/07 08:51:28;;;;;;;5.95;3.72;;;28.70;99.90;;;;;;5032051;28;20081;-51
2022/06/07 08:53:59;;;;;;;7.93;3.92;;;28.70;99.90;;;;;;5037181;28;20037;-51
2022/06/07 08:56:27;;;;;;;4.97;3.88;;;;;;;;;;5033901;28;20029;-52
2022/06/07 08:58:55;;;;;;;6.10;4.35;;;;;;;;;;5027825;28;20091;-53
2022/06/07 09:01:29;;;;;;;6.72;4.60;;;29.40;99.90;;;;;;5034611;28;20075;-51
2022/06/07 09:03:59;;;;;;;7.20;4.10;;;29.20;99.90;;;;;;5033280;28;20041;-50
2022/06/07 09:06:39;;;;;;;5.45;4.40;;;29.40;99.90;;;;;;5028553;28;20034;-51
2022/06/07 09:09:06;;;;;;;5.25;4.18;;;29.40;99.90;;;;;;5037161;28;20033;-51
2022/06/07 09:14:32;;;;;;;4.63;4.10;;;29.40;99.90;;;;;;5034187;28;20091;-52
2022/06/07 09:17:01;;;;;;;5.03;3.80;;;29.10;99.90;;;;;;5053919;28;20473;-51
2022/06/07 09:19:30;;;;;;;4.10;3.63;;;29.00;99.90;;;;;;5034049;28;20037;-51
2022/06/07 09:21:59;;;;;;;4.82;3.83;;;29.20;99.90;;;;;;5032194;28;20029;-50
2022/06/07 09:24:35;;;;;;;7.93;4.43;;;;;;;;;;5051246;28;20041;-51
2022/06/07 09:27:06;;;;;;;7.85;3.80;;;;;;;;;;5032726;28;20120;-51
2022/06/07 09:29:36;;;;;;;4.65;3.22;;;30.10;99.90;;;;;;5033072;28;20032;-52
2022/06/07 09:32:09;;;;;;;4.10;3.50;;;29.80;99.90;;;;;;5050206;28;20044;-50
2022/06/07 09:34:37;;;;;;;4.50;3.42;;;29.60;99.90;;;;;;5053135;28;20051;-51
2022/06/07 09:37:06;;;;;;;5.43;3.67;;;;;;;;;;5017627;28;20128;-51
2022/06/07 09:39:37;;;;;;;4.45;3.55;;;30.10;99.90;;;;;;5013644;28;20029;-51
2022/06/07 09:42:21;;;;;;;4.75;3.40;;;30.00;99.90;;;;;;5027541;28;20095;-51
2022/06/07 09:45:11;;;;;;;8.88;4.25;;;29.90;99.90;;;;;;5048697;28;20221;-51
2022/06/07 09:47:38;;;;;;;14.55;4.65;;;30.00;99.90;;;;;;5048279;28;20037;-51
2022/06/07 09:50:32;;;;;;;5.03;4.10;;;30.20;99.90;;;;;;5051032;28;20400;-52
2022/06/07 09:53:07;;;;;;;4.63;4.10;;;30.50;99.90;;;;;;5017310;28;20477;-51
2022/06/07 09:55:39;;;;;;;4.88;3.92;;;;;;;;;;5000733;28;20042;-51
2022/06/07 09:58:05;;;;;;;6.82;4.15;;;;;;;;;;4977425;28;21624;-50
2022/06/07 10:00:42;;;;;;;5.45;3.70;;;31.80;99.90;;;;;;4983024;28;20069;-51
2022/06/07 10:03:23;;;;;;;9.63;3.85;;;;;;;;;;4981754;28;20034;-51
2022/06/07 10:06:13;;;;;;;4.63;4.22;;;32.40;99.90;;;;;;4981936;28;20042;-51
2022/06/07 10:08:58;;;;;;;4.60;3.67;;;32.00;99.90;;;;;;4961263;28;20406;-52
2022/06/07 10:11:26;;;;;;;4.57;4.15;;;32.10;99.90;;;;;;4982182;28;20035;-51
2022/06/07 10:13:58;;;;;;;4.30;3.90;;;32.00;99.90;;;;;;4982376;28;20509;-51
2022/06/07 10:16:31;;;;;;;;;;;32.30;99.90;;;;;;4984020;28;20425;-51
2022/06/07 10:19:01;;;;;;;4.05;3.40;;;;;;;;;;4999245;28;19924;-52
2022/06/07 10:21:46;;;;;;;6.28;3.95;;;;;;;;;;4981330;28;20046;-51
2022/06/07 10:24:47;;;;;;;4.25;3.85;;;31.70;99.90;;;;;;4981806;28;20054;-52
2022/06/07 10:27:22;;;;;;;4.05;3.65;;;31.10;99.90;;;;;;4977213;28;20062;-52
2022/06/07 10:30:01;;;;;;;4.30;3.90;;;30.80;97.40;;;;;;4956051;28;20062;-52
2022/06/07 10:32:47;;;;;;;6.53;4.63;;;31.30;99.50;;;;;;4943657;28;20049;-51
2022/06/07 10:35:39;;;;;;;8.55;4.55;;;31.00;97.80;;;;;;4949519;28;20039;-52
2022/06/07 10:38:47;;;;;;;11.43;5.13;;;31.70;99.90;;;;;;4950560;28;20125;-51
2022/06/07 10:41:27;;;;;;;8.73;4.68;;;;;;;;;;4953244;28;20086;-51
2022/06/07 10:44:05;;;;;;;7.45;4.72;;;32.60;98.90;;;;;;4954110;28;20731;-51
2022/06/07 10:46:33;;;;;;;6.32;5.70;;;;;;;;;;4954477;28;20042;-52
2022/06/07 10:49:43;;;;;;;8.23;4.97;;;32.90;95.80;;;;;;4953764;28;20031;-52
2022/06/07 10:52:51;;;;;;;8.77;4.93;;;33.30;95.40;;;;;;4953570;28;20039;-52
2022/06/07 10:55:47;;;;;;;6.60;5.30;;;33.20;95.00;;;;;;4922604;28;20043;-52
2022/06/07 10:58:31;;;;;;;7.68;5.25;;;33.00;95.60;;;;;;4954828;28;20529;-53
2022/06/07 11:01:15;;;;;;;5.95;4.88;;;;;;;;;;4954690;28;20187;-54
2022/06/07 11:04:02;;;;;;;5.38;4.70;;;;;;;;;;4967602;28;20043;-53
2022/06/07 11:09:46;;;;;;;7.82;5.10;;;32.90;94.90;;;;;;4973472;28;20127;-52
2022/06/07 11:12:17;;;;;;;7.97;5.05;;;33.50;94.90;;;;;;4991460;28;20488;-51
2022/06/07 11:14:49;;;;;;;8.53;5.60;;;34.10;96.90;;;;;;5012917;28;20040;-54
2022/06/07 11:17:44;;;;;;;7.68;5.88;;;33.50;94.20;;;;;;5013961;28;20038;-51
2022/06/07 11:20:15;;;;;;;6.28;5.68;;;;;;;;;;4943903;29;20451;-52
2022/06/07 11:23:01;;;;;;;7.85;5.55;;;34.10;94.70;;;;;;4945094;29;20213;-52
2022/06/07 11:25:37;;;;;;;5.78;5.20;;;34.30;93.70;;;;;;4943997;29;20043;-53
2022/06/07 11:28:10;;;;;;;9.13;5.63;;;33.20;93.50;;;;;;4946702;28;20483;-52
2022/06/07 11:30:37;;;;;;;10.00;5.80;;;33.70;94.00;;;;;;4949066;29;20039;-53
2022/06/07 11:33:06;;;;;;;7.50;5.15;;;33.40;94.80;;;;;;4938219;29;20047;-51
2022/06/07 11:35:53;;;;;;;6.00;5.40;;;32.60;93.70;;;;;;4945021;29;20032;-54
2022/06/07 11:38:21;;;;;;;8.32;5.13;;;33.50;94.30;;;;;;4944006;29;20055;-53
2022/06/07 11:40:47;;;;;;;5.63;5.13;;;33.60;93.90;;;;;;4936934;29;20028;-49
2022/06/07 11:43:51;;;;;;;8.35;5.85;;;32.80;94.10;;;;;;4938350;29;20039;-53
2022/06/07 11:46:36;;;;;;;7.38;6.68;;;;;;;;;;4939362;29;20031;-56
2022/06/07 11:49:26;;;;;;;7.50;6.55;;;;;;;;;;4937785;29;20035;-49
2022/06/07 11:52:10;;;;;;;7.53;5.53;;;32.20;94.80;;;;;;4920142;29;20050;-52
2022/06/07 11:54:51;;;;;;;7.90;5.47;;;32.80;94.80;;;;;;4918720;29;20079;-56
2022/06/07 11:57:32;;;;;;;7.63;5.85;;;33.50;97.50;;;;;;4963448;28;20507;-47
2022/06/07 12:00:19;;;;;;;6.63;6.00;;;33.20;93.60;;;;;;4995219;28;20093;-49
2022/06/07 12:02:57;;;;;;;7.15;6.30;;;33.00;94.20;;;;;;4976661;28;20047;-47
2022/06/07 12:05:46;;;;;;;7.82;6.20;;;32.60;96.30;;;;;;4992832;28;20158;-46
2022/06/07 12:08:20;;;;;;;10.07;6.93;;;33.00;94.50;;;;;;4992064;28;20725;-43
2022/06/07 12:11:04;;;;;;;8.65;6.45;;;33.30;94.90;;;;;;4983666;28;20564;-48
2022/06/07 12:13:49;;;;;;;8.45;5.80;;;33.00;94.80;;;;;;4990955;28;20134;-47
2022/06/07 12:16:37;;;;;;;6.85;6.07;;;33.30;95.20;;;;;;4997324;28;20068;-47
2022/06/07 12:19:25;;;;;;;6.97;5.63;;;33.20;95.40;;;;;;4960486;28;20061;-46
2022/06/07 12:21:59;;;;;;;7.43;6.03;;;33.50;95.20;;;;;;4989053;28;20469;-47
2022/06/07 12:24:26;;;;;;;7.30;5.45;;;33.50;94.20;;;;;;4993266;28;20030;-47
2022/06/07 12:26:53;;;;;;;4.90;4.40;;;33.80;93.90;;;;;;4995641;28;20045;-47
2022/06/07 12:29:28;;;;;;;7.43;5.60;;;33.10;94.40;;;;;;4989910;28;20076;-47
2022/06/07 12:32:06;;;;;;;6.43;5.22;;;33.60;94.70;;;;;;5026317;28;20160;-47
2022/06/07 12:34:36;;;;;;;6.20;5.60;;;33.30;94.60;;;;;;5032123;28;20377;-48
2022/06/07 12:37:25;;;;;;;8.23;5.85;;;33.20;94.40;;;;;;5026882;28;20485;-46
2022/06/07 12:39:57;;;;;;;7.40;5.70;;;33.20;94.70;;;;;;5035571;28;20048;-47
2022/06/07 12:42:32;;;;;;;6.85;5.30;;;32.80;99.90;;;;;;5041822;28;20037;-47
2022/06/07 12:45:01;;;;;;;5.85;5.30;;;32.50;95.00;;;;;;5030813;28;20635;-46
2022/06/07 12:47:37;;;;;;;8.13;6.00;;;32.10;99.90;;;;;;5035477;28;20568;-47
2022/06/07 12:50:19;;;;;;;6.93;5.53;;;31.80;99.50;;;;;;5009721;28;20050;-46
2022/06/07 12:52:51;;;;;;;7.55;6.55;;;32.20;99.90;;;;;;4995004;28;20037;-48
2022/06/07 12:55:21;;;;;;;9.15;5.38;;;32.80;99.90;;;;;;5026487;28;20136;-47
2022/06/07 12:57:53;;;;;;;6.40;5.78;;;32.80;95.80;;;;;;5034298;28;20408;-48
2022/06/07 13:00:23;;;;;;;8.90;5.78;;;32.90;94.80;;;;;;5020821;28;20441;-47
2022/06/07 13:02:51;;;;;;;7.28;5.95;;;32.30;96.00;;;;;;4986639;28;20536;-48
2022/06/07 13:05:23;;;;;;;6.85;5.53;;;32.50;97.80;;;;;;5034678;28;20213;-49
2022/06/07 13:07:53;;;;;;;5.93;5.35;;;32.20;97.20;;;;;;5018839;28;20061;-47
2022/06/07 13:10:28;;;;;;;9.20;5.75;;;32.50;96.30;;;;;;4998885;28;20037;-48
2022/06/07 13:12:57;;;;;;;6.90;5.70;;;32.60;96.00;;;;;;5035469;28;20370;-47
2022/06/07 13:15:26;;;;;;;7.10;5.68;;;32.70;96.90;;;;;;5032584;28;20034;-47
2022/06/07 13:17:55;;;;;;;9.50;5.90;;;;;;;;;;5049866;28;20049;-47
2022/06/07 13:20:27;;;;;;;8.00;6.05;;;;;;;;;;5036087;28;20386;-47
2022/06/07 13:22:53;;;;;;;7.50;6.78;;;32.30;99.90;;;;;;5036161;28;20499;-48
2022/06/07 13:25:23;;;;;;;7.13;5.30;;;;;;;;;;5035245;28;20034;-48
2022/06/07 13:27:51;;;;;;;8.60;5.50;;;;;;;;;;5035342;28;20136;-47
2022/06/07 13:30:24;;;;;;;10.68;6.28;;;;;;;;;;5033572;28;20033;-47
2022/06/07 13:33:08;;;;;;;6.80;6.00;;;33.10;99.90;;;;;;5033579;28;20052;-47
2022/06/07 13:35:46;;;;;;;5.63;4.88;;;;;;;;;;5050634;28;21257;-48
2022/06/07 13:38:19;;;;;;;6.60;5.22;;;;;;;;;;5038035;28;20124;-48
2022/06/07 13:40:45;;;;;;;7.60;5.25;;;;;;;;;;5038187;28;20025;-48
2022/06/07 13:43:11;;;;;;;8.32;6.10;;;;;;;;;;5049208;28;20049;-47
2022/06/07 13:45:43;;;;;;;14.10;10.68;;;;;;;;;;5041790;28;20040;-47
2022/06/07 13:48:14;;;;;;;10.27;7.40;;;;;;;;;;5030031;28;20145;-47
2022/06/07 13:53:49;;;;;;;6.50;5.80;;;32.40;99.90;;;;;;5031776;28;20119;-47
2022/06/07 13:56:17;;;;;;;11.77;5.40;;;32.80;99.90;;;;;;5030974;28;20044;-47
2022/06/07 13:58:54;;;;;;;4.97;4.47;;;33.00;99.90;;;;;;5031134;28;20187;-48
2022/06/07 14:01:29;;;;;;;5.95;5.35;;;;;;;;;;4996201;28;20049;-47
2022/06/07 14:03:59;;;;;;;6.68;5.85;;;;;;;;;;5030606;28;20029;-47
2022/06/07 14:06:32;;;;;;;7.60;5.35;;;;;;;;;;5032500;28;20068;-47
2022/06/07 14:08:59;;;;;;;6.03;5.03;;;;;;;;;;5034272;28;20603;-47